sensor_id;sensor_type;location;lat;lon;timestamp;pressure;altitude;pressure_sealevel;temperature;humidity
8298;BME280;4187;42.778;23.242;2022-07-18T00:00:45;95984.19;;;16.03;100.00
8298;BME280;4187;42.778;23.242;2022-07-18T00:03:12;95986.31;;;15.92;100.00
8298;BME280;4187;42.778;23.242;2022-07-18T00:05:39;95995.00;;;16.02;100.00
8298;BME280;4187;42.778;23.242;2022-07-18T00:08:06;95971.34;;;15.91;100.00
8298;BME280;4187;42.778;23.242;2022-07-18T00:10:32;95993.34;;;16.09;100.00
8298;BME280;4187;42.778;23.242;2022-07-18T00:12:59;96004.84;;;16.09;100.00
8298;BME280;4187;42.778;23.242;2022-07-18T00:15:27;95994.03;;;16.03;100.00
8298;BME280;4187;42.778;23.242;2022-07-18T00:17:54;96006.59;;;15.93;100.00
8298;BME280;4187;42.778;23.242;2022-07-18T00:20:21;95988.44;;;15.80;100.00
8298;BME280;4187;42.778;23.242;2022-07-18T00:22:48;95969.59;;;15.74;100.00
8298;BME280;4187;42.778;23.242;2022-07-18T00:25:15;96005.09;;;15.90;100.00
8298;BME280;4187;42.778;23.242;2022-07-18T00:27:42;95966.84;;;15.57;100.00
8298;BME280;4187;42.778;23.242;2022-07-18T00:30:10;95998.38;;;15.70;100.00
8298;BME280;4187;42.778;23.242;2022-07-18T00:32:38;95990.22;;;15.72;100.00
8298;BME280;4187;42.778;23.242;2022-07-18T00:35:06;95993.66;;;15.64;100.00
8298;BME280;4187;42.778;23.242;2022-07-18T00:37:33;95991.16;;;15.63;100.00
8298;BME280;4187;42.778;23.242;2022-07-18T00:40:00;95995.97;;;15.59;100.00
8298;BME280;4187;42.778;23.242;2022-07-18T00:42:27;95996.59;;;15.53;100.00
8298;BME280;4187;42.778;23.242;2022-07-18T00:44:55;95981.84;;;15.41;100.00
8298;BME280;4187;42.778;23.242;2022-07-18T00:47:22;95823.25;;;14.47;100.00
8298;BME280;4187;42.778;23.242;2022-07-18T00:49:50;95984.38;;;15.42;100.00
8298;BME280;4187;42.778;23.242;2022-07-18T00:52:17;96009.28;;;15.41;100.00
8298;BME280;4187;42.778;23.242;2022-07-18T00:54:43;96010.59;;;15.37;100.00
8298;BME280;4187;42.778;23.242;2022-07-18T00:57:11;96006.88;;;15.30;100.00
8298;BME280;4187;42.778;23.242;2022-07-18T00:59:39;95951.13;;;14.95;100.00
8298;BME280;4187;42.778;23.242;2022-07-18T01:02:24;95980.72;;;15.18;100.00
8298;BME280;4187;42.778;23.242;2022-07-18T01:04:53;96007.88;;;15.29;100.00
8298;BME280;4187;42.778;23.242;2022-07-18T01:07:20;96005.84;;;15.23;100.00
8298;BME280;4187;42.778;23.242;2022-07-18T01:09:47;95995.03;;;15.25;100.00
8298;BME280;4187;42.778;23.242;2022-07-18T01:12:14;95997.81;;;15.15;100.00
8298;BME280;4187;42.778;23.242;2022-07-18T01:14:42;95999.75;;;15.05;100.00
8298;BME280;4187;42.778;23.242;2022-07-18T01:17:13;96003.84;;;15.00;100.00
8298;BME280;4187;42.778;23.242;2022-07-18T01:19:40;95999.81;;;14.95;100.00
8298;BME280;4187;42.778;23.242;2022-07-18T01:22:08;95977.06;;;14.75;100.00
8298;BME280;4187;42.778;23.242;2022-07-18T01:24:35;96000.06;;;14.84;100.00
8298;BME280;4187;42.778;23.242;2022-07-18T01:27:03;95996.28;;;14.69;100.00
8298;BME280;4187;42.778;23.242;2022-07-18T01:29:29;95970.47;;;14.44;100.00
8298;BME280;4187;42.778;23.242;2022-07-18T01:32:03;95968.56;;;14.36;100.00
8298;BME280;4187;42.778;23.242;2022-07-18T01:34:30;95971.78;;;14.30;100.00
8298;BME280;4187;42.778;23.242;2022-07-18T01:36:57;95998.16;;;14.42;100.00
8298;BME280;4187;42.778;23.242;2022-07-18T01:39:25;95975.91;;;13.98;100.00
8298;BME280;4187;42.778;23.242;2022-07-18T01:41:55;95999.66;;;13.99;100.00
8298;BME280;4187;42.778;23.242;2022-07-18T01:44:22;95995.97;;;13.83;100.00
8298;BME280;4187;42.778;23.242;2022-07-18T01:46:49;95969.31;;;13.57;100.00
8298;BME280;4187;42.778;23.242;2022-07-18T01:49:16;95992.47;;;13.55;100.00
8298;BME280;4187;42.778;23.242;2022-07-18T01:51:44;95983.59;;;13.37;100.00
8298;BME280;4187;42.778;23.242;2022-07-18T01:54:12;95993.91;;;13.40;100.00
8298;BME280;4187;42.778;23.242;2022-07-18T01:56:40;95994.88;;;13.39;100.00
8298;BME280;4187;42.778;23.242;2022-07-18T01:59:07;95996.69;;;13.48;100.00
8298;BME280;4187;42.778;23.242;2022-07-18T02:01:33;96003.34;;;13.61;100.00
8298;BME280;4187;42.778;23.242;2022-07-18T02:04:00;95931.88;;;13.33;100.00
8298;BME280;4187;42.778;23.242;2022-07-18T02:06:27;95998.53;;;13.74;100.00
8298;BME280;4187;42.778;23.242;2022-07-18T02:08:54;95983.75;;;13.72;100.00
8298;BME280;4187;42.778;23.242;2022-07-18T02:11:21;95992.25;;;13.75;100.00
8298;BME280;4187;42.778;23.242;2022-07-18T02:13:49;95992.66;;;13.71;100.00
8298;BME280;4187;42.778;23.242;2022-07-18T02:16:16;95989.88;;;13.72;100.00
8298;BME280;4187;42.778;23.242;2022-07-18T02:18:43;95992.53;;;13.72;100.00
8298;BME280;4187;42.778;23.242;2022-07-18T02:21:10;95932.56;;;13.25;100.00
8298;BME280;4187;42.778;23.242;2022-07-18T02:23:39;95987.22;;;13.36;100.00
8298;BME280;4187;42.778;23.242;2022-07-18T02:26:06;95984.03;;;13.32;100.00
8298;BME280;4187;42.778;23.242;2022-07-18T02:28:33;95996.00;;;13.36;100.00
8298;BME280;4187;42.778;23.242;2022-07-18T02:31:02;95973.09;;;12.89;100.00
8298;BME280;4187;42.778;23.242;2022-07-18T02:33:29;96006.53;;;12.90;100.00
8298;BME280;4187;42.778;23.242;2022-07-18T02:35:56;96006.28;;;12.83;100.00
8298;BME280;4187;42.778;23.242;2022-07-18T02:38:23;96011.44;;;12.75;100.00
8298;BME280;4187;42.778;23.242;2022-07-18T02:40:50;96009.75;;;12.74;100.00
8298;BME280;4187;42.778;23.242;2022-07-18T02:43:17;95998.06;;;12.67;100.00
8298;BME280;4187;42.778;23.242;2022-07-18T02:45:43;96003.22;;;12.78;100.00
8298;BME280;4187;42.778;23.242;2022-07-18T02:48:12;96017.97;;;12.90;100.00
8298;BME280;4187;42.778;23.242;2022-07-18T02:50:38;96005.53;;;13.00;100.00
8298;BME280;4187;42.778;23.242;2022-07-18T02:53:05;96004.06;;;13.07;100.00
8298;BME280;4187;42.778;23.242;2022-07-18T02:55:32;96015.34;;;13.19;100.00
8298;BME280;4187;42.778;23.242;2022-07-18T02:57:59;95988.97;;;12.98;100.00
8298;BME280;4187;42.778;23.242;2022-07-18T03:00:26;96027.63;;;13.10;100.00
8298;BME280;4187;42.778;23.242;2022-07-18T03:02:53;96033.03;;;13.09;100.00
8298;BME280;4187;42.778;23.242;2022-07-18T03:05:21;95939.66;;;12.49;100.00
8298;BME280;4187;42.778;23.242;2022-07-18T03:07:48;96016.44;;;13.16;100.00
8298;BME280;4187;42.778;23.242;2022-07-18T03:10:15;95998.84;;;13.06;100.00
8298;BME280;4187;42.778;23.242;2022-07-18T03:12:42;96019.06;;;13.16;100.00
8298;BME280;4187;42.778;23.242;2022-07-18T03:15:09;96030.28;;;13.10;100.00
8298;BME280;4187;42.778;23.242;2022-07-18T03:17:36;96034.72;;;12.81;100.00
8298;BME280;4187;42.778;23.242;2022-07-18T03:20:04;96030.53;;;12.69;100.00
8298;BME280;4187;42.778;23.242;2022-07-18T03:22:32;96021.91;;;12.48;100.00
8298;BME280;4187;42.778;23.242;2022-07-18T03:24:59;96033.56;;;12.36;100.00
8298;BME280;4187;42.778;23.242;2022-07-18T03:27:26;96036.47;;;12.23;100.00
8298;BME280;4187;42.778;23.242;2022-07-18T03:29:53;96035.47;;;12.15;100.00
8298;BME280;4187;42.778;23.242;2022-07-18T03:32:20;96041.09;;;12.21;100.00
8298;BME280;4187;42.778;23.242;2022-07-18T03:34:47;96041.78;;;12.33;100.00
8298;BME280;4187;42.778;23.242;2022-07-18T03:37:13;96038.31;;;12.32;100.00
8298;BME280;4187;42.778;23.242;2022-07-18T03:39:42;96024.47;;;12.10;100.00
8298;BME280;4187;42.778;23.242;2022-07-18T03:42:08;96029.34;;;12.05;100.00
8298;BME280;4187;42.778;23.242;2022-07-18T03:44:35;96040.56;;;11.87;100.00
8298;BME280;4187;42.778;23.242;2022-07-18T03:47:02;96039.28;;;11.82;100.00
8298;BME280;4187;42.778;23.242;2022-07-18T03:49:29;96037.91;;;11.87;100.00
8298;BME280;4187;42.778;23.242;2022-07-18T03:51:56;96023.72;;;11.88;100.00
8298;BME280;4187;42.778;23.242;2022-07-18T03:54:23;96038.53;;;12.10;100.00
8298;BME280;4187;42.778;23.242;2022-07-18T03:56:51;96040.94;;;12.13;100.00
8298;BME280;4187;42.778;23.242;2022-07-18T03:59:18;96048.03;;;12.22;100.00
8298;BME280;4187;42.778;23.242;2022-07-18T04:01:45;96051.97;;;12.47;100.00
8298;BME280;4187;42.778;23.242;2022-07-18T04:04:12;96058.13;;;12.67;100.00
8298;BME280;4187;42.778;23.242;2022-07-18T04:06:39;96053.13;;;12.83;100.00
8298;BME280;4187;42.778;23.242;2022-07-18T04:09:06;96057.28;;;13.04;100.00
8298;BME280;4187;42.778;23.242;2022-07-18T04:11:32;96047.53;;;13.14;100.00
8298;BME280;4187;42.778;23.242;2022-07-18T04:14:01;96037.09;;;13.13;100.00
8298;BME280;4187;42.778;23.242;2022-07-18T04:16:28;96056.88;;;13.38;100.00
8298;BME280;4187;42.778;23.242;2022-07-18T04:18:54;96031.16;;;13.38;100.00
8298;BME280;4187;42.778;23.242;2022-07-18T04:21:21;96043.13;;;13.61;100.00
8298;BME280;4187;42.778;23.242;2022-07-18T04:23:49;96043.63;;;13.74;100.00
8298;BME280;4187;42.778;23.242;2022-07-18T04:26:15;96031.03;;;13.76;100.00
8298;BME280;4187;42.778;23.242;2022-07-18T04:28:42;96022.50;;;13.83;100.00
8298;BME280;4187;42.778;23.242;2022-07-18T04:31:10;95991.31;;;13.67;100.00
8298;BME280;4187;42.778;23.242;2022-07-18T04:33:37;96012.75;;;13.83;100.00
8298;BME280;4187;42.778;23.242;2022-07-18T04:36:05;96001.13;;;13.84;100.00
8298;BME280;4187;42.778;23.242;2022-07-18T04:38:31;96009.81;;;14.04;100.00
8298;BME280;4187;42.778;23.242;2022-07-18T04:41:02;96039.00;;;14.41;100.00
8298;BME280;4187;42.778;23.242;2022-07-18T04:43:30;95980.97;;;14.18;100.00
8298;BME280;4187;42.778;23.242;2022-07-18T04:45:58;96036.28;;;14.68;100.00
8298;BME280;4187;42.778;23.242;2022-07-18T04:48:26;95976.63;;;14.45;100.00
8298;BME280;4187;42.778;23.242;2022-07-18T04:50:54;96010.84;;;14.83;100.00
8298;BME280;4187;42.778;23.242;2022-07-18T04:53:21;96038.53;;;15.16;100.00
8298;BME280;4187;42.778;23.242;2022-07-18T04:55:50;95814.50;;;13.93;100.00
8298;BME280;4187;42.778;23.242;2022-07-18T04:58:17;96039.31;;;15.34;100.00
8298;BME280;4187;42.778;23.242;2022-07-18T05:00:44;95942.72;;;15.00;100.00
8298;BME280;4187;42.778;23.242;2022-07-18T05:03:11;95948.66;;;15.19;100.00
8298;BME280;4187;42.778;23.242;2022-07-18T05:05:41;96045.19;;;15.89;98.57
8298;BME280;4187;42.778;23.242;2022-07-18T05:08:08;96020.94;;;15.92;97.14
8298;BME280;4187;42.778;23.242;2022-07-18T05:10:37;95906.91;;;15.45;95.00
8298;BME280;4187;42.778;23.242;2022-07-18T05:13:04;95951.84;;;15.82;93.82
8298;BME280;4187;42.778;23.242;2022-07-18T05:15:33;96040.94;;;16.46;94.12
8298;BME280;4187;42.778;23.242;2022-07-18T05:18:00;96031.84;;;16.56;92.44
8298;BME280;4187;42.778;23.242;2022-07-18T05:20:28;95916.81;;;16.03;90.97
8298;BME280;4187;42.778;23.242;2022-07-18T05:22:56;96034.22;;;16.92;90.77
8298;BME280;4187;42.778;23.242;2022-07-18T05:25:23;95950.41;;;16.62;82.17
8298;BME280;4187;42.778;23.242;2022-07-18T05:27:51;96039.72;;;17.30;80.65
8298;BME280;4187;42.778;23.242;2022-07-18T05:30:19;96046.56;;;17.41;80.25
8298;BME280;4187;42.778;23.242;2022-07-18T05:32:46;96041.91;;;17.51;81.18
8298;BME280;4187;42.778;23.242;2022-07-18T05:35:14;96004.38;;;17.37;83.29
8298;BME280;4187;42.778;23.242;2022-07-18T05:37:41;95941.03;;;17.14;81.41
8298;BME280;4187;42.778;23.242;2022-07-18T05:40:13;96033.84;;;17.83;79.11
8298;BME280;4187;42.778;23.242;2022-07-18T05:42:41;95942.47;;;17.41;79.48
8298;BME280;4187;42.778;23.242;2022-07-18T05:45:10;95954.66;;;17.68;80.54
8298;BME280;4187;42.778;23.242;2022-07-18T05:47:38;96050.50;;;18.48;81.96
8298;BME280;4187;42.778;23.242;2022-07-18T05:50:07;95912.38;;;17.79;74.10
8298;BME280;4187;42.778;23.242;2022-07-18T05:52:34;96001.50;;;18.56;72.14
8298;BME280;4187;42.778;23.242;2022-07-18T05:55:01;96009.25;;;18.74;69.38
8298;BME280;4187;42.778;23.242;2022-07-18T05:57:30;95979.38;;;18.70;72.32
8298;BME280;4187;42.778;23.242;2022-07-18T05:59:57;96036.72;;;19.13;66.92
8298;BME280;4187;42.778;23.242;2022-07-18T06:02:24;95953.84;;;18.82;67.84
8298;BME280;4187;42.778;23.242;2022-07-18T06:04:51;96031.00;;;19.39;68.50
8298;BME280;4187;42.778;23.242;2022-07-18T06:07:17;96030.31;;;19.45;65.56
8298;BME280;4187;42.778;23.242;2022-07-18T06:09:44;96047.22;;;19.60;69.76
8298;BME280;4187;42.778;23.242;2022-07-18T06:12:11;96002.38;;;19.62;69.86
8298;BME280;4187;42.778;23.242;2022-07-18T06:14:40;96050.78;;;20.04;68.51
8298;BME280;4187;42.778;23.242;2022-07-18T06:17:07;96018.38;;;19.99;65.88
8298;BME280;4187;42.778;23.242;2022-07-18T06:19:34;96032.78;;;20.27;65.60
8298;BME280;4187;42.778;23.242;2022-07-18T06:22:01;96013.28;;;20.34;66.02
8298;BME280;4187;42.778;23.242;2022-07-18T06:24:28;95961.63;;;20.25;63.42
8298;BME280;4187;42.778;23.242;2022-07-18T06:26:55;96052.91;;;21.03;62.35
8298;BME280;4187;42.778;23.242;2022-07-18T06:29:22;95976.00;;;20.74;56.00
8298;BME280;4187;42.778;23.242;2022-07-18T06:31:50;96054.41;;;21.27;54.86
8298;BME280;4187;42.778;23.242;2022-07-18T06:34:17;96044.09;;;21.30;54.49
8298;BME280;4187;42.778;23.242;2022-07-18T06:36:44;96007.19;;;21.11;48.46
8298;BME280;4187;42.778;23.242;2022-07-18T06:39:11;96012.09;;;21.29;45.55
8298;BME280;4187;42.778;23.242;2022-07-18T06:41:40;96033.78;;;21.55;46.31
8298;BME280;4187;42.778;23.242;2022-07-18T06:44:07;96041.41;;;21.73;49.54
8298;BME280;4187;42.778;23.242;2022-07-18T06:46:34;96030.56;;;21.87;42.34
8298;BME280;4187;42.778;23.242;2022-07-18T06:49:03;96034.41;;;21.78;46.25
8298;BME280;4187;42.778;23.242;2022-07-18T06:51:30;96034.81;;;21.82;47.92
8298;BME280;4187;42.778;23.242;2022-07-18T06:53:58;96028.91;;;21.86;48.42
8298;BME280;4187;42.778;23.242;2022-07-18T06:56:25;96009.00;;;21.81;46.78
8298;BME280;4187;42.778;23.242;2022-07-18T06:58:53;95909.47;;;21.33;41.87
8298;BME280;4187;42.778;23.242;2022-07-18T07:01:31;95934.09;;;21.37;42.86
8298;BME280;4187;42.778;23.242;2022-07-18T07:03:58;96004.72;;;21.86;42.88
8298;BME280;4187;42.778;23.242;2022-07-18T07:06:26;95920.72;;;21.43;41.85
8298;BME280;4187;42.778;23.242;2022-07-18T07:08:53;96021.91;;;22.26;45.25
8298;BME280;4187;42.778;23.242;2022-07-18T07:11:21;95986.75;;;22.28;40.88
8298;BME280;4187;42.778;23.242;2022-07-18T07:13:49;95995.13;;;22.46;43.97
8298;BME280;4187;42.778;23.242;2022-07-18T07:16:16;95889.41;;;21.98;39.76
8298;BME280;4187;42.778;23.242;2022-07-18T07:18:43;96024.28;;;22.90;42.43
8298;BME280;4187;42.778;23.242;2022-07-18T07:21:10;96019.94;;;22.95;46.69
8298;BME280;4187;42.778;23.242;2022-07-18T07:23:38;96017.09;;;23.10;44.91
8298;BME280;4187;42.778;23.242;2022-07-18T07:26:06;95996.38;;;23.17;40.52
8298;BME280;4187;42.778;23.242;2022-07-18T07:28:33;96006.56;;;23.41;43.26
8298;BME280;4187;42.778;23.242;2022-07-18T07:31:00;95860.47;;;22.74;40.84
8298;BME280;4187;42.778;23.242;2022-07-18T07:33:28;96017.13;;;24.02;46.48
8298;BME280;4187;42.778;23.242;2022-07-18T07:35:55;95972.31;;;24.01;42.87
8298;BME280;4187;42.778;23.242;2022-07-18T07:38:22;95981.00;;;24.35;42.92
8298;BME280;4187;42.778;23.242;2022-07-18T07:40:55;96016.38;;;24.65;38.11
8298;BME280;4187;42.778;23.242;2022-07-18T07:43:23;96006.78;;;24.69;39.85
8298;BME280;4187;42.778;23.242;2022-07-18T07:45:53;95868.03;;;23.88;40.12
8298;BME280;4187;42.778;23.242;2022-07-18T07:48:21;96001.16;;;24.84;38.07
8298;BME280;4187;42.778;23.242;2022-07-18T07:50:49;95929.31;;;24.32;35.61
8298;BME280;4187;42.778;23.242;2022-07-18T07:53:17;95990.88;;;24.55;35.66
8298;BME280;4187;42.778;23.242;2022-07-18T07:55:44;96008.34;;;24.39;35.71
8298;BME280;4187;42.778;23.242;2022-07-18T07:58:12;95928.97;;;23.96;38.26
8298;BME280;4187;42.778;23.242;2022-07-18T08:00:39;95900.63;;;23.87;38.15
8298;BME280;4187;42.778;23.242;2022-07-18T08:03:08;95908.63;;;24.06;40.65
8298;BME280;4187;42.778;23.242;2022-07-18T08:05:37;96025.78;;;25.01;41.53
8298;BME280;4187;42.778;23.242;2022-07-18T08:08:05;95980.06;;;25.06;39.76
8298;BME280;4187;42.778;23.242;2022-07-18T08:10:32;96008.28;;;25.41;40.39
8298;BME280;4187;42.778;23.242;2022-07-18T08:12:59;96014.19;;;25.63;41.58
8298;BME280;4187;42.778;23.242;2022-07-18T08:15:28;95965.19;;;25.46;37.04
8298;BME280;4187;42.778;23.242;2022-07-18T08:17:55;96001.75;;;25.80;37.43
8298;BME280;4187;42.778;23.242;2022-07-18T08:20:22;95974.63;;;25.68;38.27
8298;BME280;4187;42.778;23.242;2022-07-18T08:22:53;95975.63;;;25.92;38.52
8298;BME280;4187;42.778;23.242;2022-07-18T08:25:21;96012.06;;;26.14;37.05
8298;BME280;4187;42.778;23.242;2022-07-18T08:27:48;95987.78;;;25.83;35.35
8298;BME280;4187;42.778;23.242;2022-07-18T08:30:15;96016.06;;;26.05;35.24
8298;BME280;4187;42.778;23.242;2022-07-18T08:32:44;96015.31;;;25.98;35.40
8298;BME280;4187;42.778;23.242;2022-07-18T08:35:11;95997.31;;;25.61;34.48
8298;BME280;4187;42.778;23.242;2022-07-18T08:37:38;96010.91;;;25.54;35.92
8298;BME280;4187;42.778;23.242;2022-07-18T08:40:06;96010.09;;;25.78;40.32
8298;BME280;4187;42.778;23.242;2022-07-18T08:42:33;96015.19;;;26.11;40.92
8298;BME280;4187;42.778;23.242;2022-07-18T08:45:03;96015.09;;;26.42;40.20
8298;BME280;4187;42.778;23.242;2022-07-18T08:47:30;96007.78;;;26.61;39.16
8298;BME280;4187;42.778;23.242;2022-07-18T08:50:00;96012.31;;;26.85;36.91
8298;BME280;4187;42.778;23.242;2022-07-18T08:52:27;95993.97;;;26.87;35.12
8298;BME280;4187;42.778;23.242;2022-07-18T08:54:55;96017.19;;;26.95;33.75
8298;BME280;4187;42.778;23.242;2022-07-18T08:57:23;95947.22;;;26.44;32.03
8298;BME280;4187;42.778;23.242;2022-07-18T08:59:50;96005.84;;;26.86;33.47
8298;BME280;4187;42.778;23.242;2022-07-18T09:02:17;96013.66;;;26.94;36.75
8298;BME280;4187;42.778;23.242;2022-07-18T09:04:47;96006.75;;;27.10;34.49
8298;BME280;4187;42.778;23.242;2022-07-18T09:07:25;95965.13;;;26.74;35.09
8298;BME280;4187;42.778;23.242;2022-07-18T09:09:54;96002.75;;;27.12;38.97
8298;BME280;4187;42.778;23.242;2022-07-18T09:12:21;95977.00;;;27.21;38.20
8298;BME280;4187;42.778;23.242;2022-07-18T09:14:49;95994.88;;;27.52;36.68
8298;BME280;4187;42.778;23.242;2022-07-18T09:17:17;95949.69;;;27.35;36.55
8298;BME280;4187;42.778;23.242;2022-07-18T09:19:57;95935.56;;;27.33;34.92
8298;BME280;4187;42.778;23.242;2022-07-18T09:22:27;95998.72;;;27.74;35.19
8298;BME280;4187;42.778;23.242;2022-07-18T09:24:58;96003.09;;;27.75;33.02
8298;BME280;4187;42.778;23.242;2022-07-18T09:27:27;95997.66;;;27.99;33.76
8298;BME280;4187;42.778;23.242;2022-07-18T09:30:16;95998.41;;;28.17;36.18
8298;BME280;4187;42.778;23.242;2022-07-18T09:32:45;96005.59;;;28.35;33.24
8298;BME280;4187;42.778;23.242;2022-07-18T09:35:14;95964.66;;;28.25;37.51
8298;BME280;4187;42.778;23.242;2022-07-18T09:37:54;95967.81;;;28.33;35.58
8298;BME280;4187;42.778;23.242;2022-07-18T09:40:22;95947.50;;;28.36;34.73
8298;BME280;4187;42.778;23.242;2022-07-18T09:42:50;96004.97;;;28.56;31.92
8298;BME280;4187;42.778;23.242;2022-07-18T09:45:25;95980.59;;;28.33;36.79
8298;BME280;4187;42.778;23.242;2022-07-18T09:47:54;96002.59;;;28.60;31.08
8298;BME280;4187;42.778;23.242;2022-07-18T09:50:25;95971.59;;;28.32;33.79
8298;BME280;4187;42.778;23.242;2022-07-18T09:53:15;95996.13;;;28.49;34.63
8298;BME280;4187;42.778;23.242;2022-07-18T09:55:45;95998.81;;;28.72;34.71
8298;BME280;4187;42.778;23.242;2022-07-18T09:58:16;95990.28;;;28.80;35.28
8298;BME280;4187;42.778;23.242;2022-07-18T10:00:43;96002.81;;;29.10;38.62
8298;BME280;4187;42.778;23.242;2022-07-18T10:03:10;95897.50;;;28.60;36.87
8298;BME280;4187;42.778;23.242;2022-07-18T10:05:39;95960.91;;;29.05;35.23
8298;BME280;4187;42.778;23.242;2022-07-18T10:08:09;95969.13;;;29.22;37.08
8298;BME280;4187;42.778;23.242;2022-07-18T10:10:40;95966.19;;;29.40;33.86
8298;BME280;4187;42.778;23.242;2022-07-18T10:13:08;95964.94;;;29.31;32.89
8298;BME280;4187;42.778;23.242;2022-07-18T10:15:38;95969.78;;;29.29;34.88
8298;BME280;4187;42.778;23.242;2022-07-18T10:18:10;95968.34;;;29.38;35.61
8298;BME280;4187;42.778;23.242;2022-07-18T10:20:39;95934.53;;;29.34;36.88
8298;BME280;4187;42.778;23.242;2022-07-18T10:23:09;95871.38;;;29.16;39.91
8298;BME280;4187;42.778;23.242;2022-07-18T10:25:40;95977.28;;;30.00;35.91
8298;BME280;4187;42.778;23.242;2022-07-18T10:28:11;95970.66;;;30.13;37.63
8298;BME280;4187;42.778;23.242;2022-07-18T10:30:42;95966.56;;;30.32;37.95
8298;BME280;4187;42.778;23.242;2022-07-18T10:33:38;95966.78;;;30.47;34.48
8298;BME280;4187;42.778;23.242;2022-07-18T10:36:07;95966.41;;;30.60;35.77
8298;BME280;4187;42.778;23.242;2022-07-18T10:39:03;95957.91;;;30.35;33.03
8298;BME280;4187;42.778;23.242;2022-07-18T10:42:15;95949.00;;;30.40;36.98
8298;BME280;4187;42.778;23.242;2022-07-18T10:44:45;95956.06;;;30.57;33.13
8298;BME280;4187;42.778;23.242;2022-07-18T10:47:13;95946.50;;;30.55;35.78
8298;BME280;4187;42.778;23.242;2022-07-18T10:50:03;95914.81;;;30.32;33.61
8298;BME280;4187;42.778;23.242;2022-07-18T10:52:56;95943.22;;;30.58;35.14
8298;BME280;4187;42.778;23.242;2022-07-18T10:55:30;95942.53;;;30.67;32.63
8298;BME280;4187;42.778;23.242;2022-07-18T10:58:21;95949.72;;;30.73;31.89
8298;BME280;4187;42.778;23.242;2022-07-18T11:00:50;95903.34;;;30.08;32.00
8298;BME280;4187;42.778;23.242;2022-07-18T11:03:28;95937.22;;;30.17;37.64
8298;BME280;4187;42.778;23.242;2022-07-18T11:05:57;95935.06;;;30.36;36.39
8298;BME280;4187;42.778;23.242;2022-07-18T11:08:24;95929.59;;;30.58;39.26
8298;BME280;4187;42.778;23.242;2022-07-18T11:11:06;95882.69;;;30.51;35.81
8298;BME280;4187;42.778;23.242;2022-07-18T11:13:36;95927.66;;;30.97;34.16
8298;BME280;4187;42.778;23.242;2022-07-18T11:16:04;95919.88;;;31.10;34.01
8298;BME280;4187;42.778;23.242;2022-07-18T11:21:35;95921.06;;;31.46;32.84
8298;BME280;4187;42.778;23.242;2022-07-18T11:24:04;95928.91;;;31.43;35.93
8298;BME280;4187;42.778;23.242;2022-07-18T11:26:33;95920.88;;;31.31;34.75
8298;BME280;4187;42.778;23.242;2022-07-18T11:29:03;95904.59;;;31.36;37.91
8298;BME280;4187;42.778;23.242;2022-07-18T11:31:32;95912.81;;;31.41;36.93
8298;BME280;4187;42.778;23.242;2022-07-18T11:34:00;95907.84;;;31.33;34.21
8298;BME280;4187;42.778;23.242;2022-07-18T11:36:30;95912.47;;;31.32;35.67
8298;BME280;4187;42.778;23.242;2022-07-18T11:38:59;95917.91;;;31.32;36.48
8298;BME280;4187;42.778;23.242;2022-07-18T11:41:27;95916.63;;;31.40;36.87
8298;BME280;4187;42.778;23.242;2022-07-18T11:43:56;95913.81;;;31.03;31.76
8298;BME280;4187;42.778;23.242;2022-07-18T11:46:26;95912.16;;;30.80;36.44
8298;BME280;4187;42.778;23.242;2022-07-18T11:48:58;95903.44;;;31.00;36.54
8298;BME280;4187;42.778;23.242;2022-07-18T11:51:25;95906.25;;;31.10;34.93
8298;BME280;4187;42.778;23.242;2022-07-18T11:54:00;95898.22;;;30.99;36.19
8298;BME280;4187;42.778;23.242;2022-07-18T11:56:26;95904.41;;;31.16;35.12
8298;BME280;4187;42.778;23.242;2022-07-18T11:58:54;95902.31;;;31.28;36.04
8298;BME280;4187;42.778;23.242;2022-07-18T12:01:22;95905.25;;;31.48;35.77
8298;BME280;4187;42.778;23.242;2022-07-18T12:03:57;95899.34;;;31.61;35.73
8298;BME280;4187;42.778;23.242;2022-07-18T12:06:25;95896.38;;;31.63;34.06
8298;BME280;4187;42.778;23.242;2022-07-18T12:08:54;95897.28;;;31.73;34.11
8298;BME280;4187;42.778;23.242;2022-07-18T12:11:26;95882.28;;;31.76;34.98
8298;BME280;4187;42.778;23.242;2022-07-18T12:13:54;95893.94;;;31.66;33.72
8298;BME280;4187;42.778;23.242;2022-07-18T12:16:40;95873.75;;;31.67;31.99
8298;BME280;4187;42.778;23.242;2022-07-18T12:19:10;95887.91;;;31.64;32.38
8298;BME280;4187;42.778;23.242;2022-07-18T12:21:42;95890.16;;;31.72;32.69
8298;BME280;4187;42.778;23.242;2022-07-18T12:24:24;95900.88;;;31.79;31.64
8298;BME280;4187;42.778;23.242;2022-07-18T12:27:12;95901.09;;;31.72;30.77
8298;BME280;4187;42.778;23.242;2022-07-18T12:30:06;95894.44;;;31.63;28.09
8298;BME280;4187;42.778;23.242;2022-07-18T12:32:39;95898.66;;;31.17;28.54
8298;BME280;4187;42.778;23.242;2022-07-18T12:35:09;95884.38;;;31.05;32.07
8298;BME280;4187;42.778;23.242;2022-07-18T12:37:37;95894.59;;;31.20;32.45
8298;BME280;4187;42.778;23.242;2022-07-18T12:40:05;95885.94;;;31.28;33.50
8298;BME280;4187;42.778;23.242;2022-07-18T12:42:34;95892.22;;;31.28;34.76
8298;BME280;4187;42.778;23.242;2022-07-18T12:45:01;95867.25;;;31.10;35.78
8298;BME280;4187;42.778;23.242;2022-07-18T12:47:29;95884.78;;;31.19;37.45
8298;BME280;4187;42.778;23.242;2022-07-18T12:49:56;95883.66;;;31.15;36.20
8298;BME280;4187;42.778;23.242;2022-07-18T12:52:25;95879.38;;;31.24;37.12
8298;BME280;4187;42.778;23.242;2022-07-18T12:54:52;95880.25;;;31.29;35.47
8298;BME280;4187;42.778;23.242;2022-07-18T12:57:20;95877.31;;;31.36;34.83
8298;BME280;4187;42.778;23.242;2022-07-18T12:59:47;95874.25;;;31.27;34.58
8298;BME280;4187;42.778;23.242;2022-07-18T13:02:15;95883.81;;;31.30;33.67
8298;BME280;4187;42.778;23.242;2022-07-18T13:04:42;95881.75;;;31.15;29.89
8298;BME280;4187;42.778;23.242;2022-07-18T13:07:09;95886.69;;;31.18;33.69
8298;BME280;4187;42.778;23.242;2022-07-18T13:09:37;95874.28;;;31.32;32.96
8298;BME280;4187;42.778;23.242;2022-07-18T13:12:05;95873.09;;;31.23;33.33
8298;BME280;4187;42.778;23.242;2022-07-18T13:14:33;95872.47;;;30.90;33.64
8298;BME280;4187;42.778;23.242;2022-07-18T13:17:01;95866.63;;;30.76;34.13
8298;BME280;4187;42.778;23.242;2022-07-18T13:19:28;95871.09;;;30.87;33.65